sensor_id;sensor_type;location;lat;lon;timestamp;P1;durP1;ratioP1;P2;durP2;ratioP2
31498;SDS011;18115;52.486;13.386;2023-03-01T00:01:10;43.85;;;15.73;;
31498;SDS011;18115;52.486;13.386;2023-03-01T00:03:43;44.80;;;16.00;;
31498;SDS011;18115;52.486;13.386;2023-03-01T00:06:09;45.10;;;15.55;;
31498;SDS011;18115;52.486;13.386;2023-03-01T00:08:35;41.22;;;14.13;;
31498;SDS011;18115;52.486;13.386;2023-03-01T00:13:39;33.63;;;15.43;;
31498;SDS011;18115;52.486;13.386;2023-03-01T00:16:07;33.03;;;13.93;;
31498;SDS011;18115;52.486;13.386;2023-03-01T00:18:35;31.95;;;12.50;;
31498;SDS011;18115;52.486;13.386;2023-03-01T00:21:00;49.63;;;17.13;;
31498;SDS011;18115;52.486;13.386;2023-03-01T00:23:26;36.13;;;13.07;;
31498;SDS011;18115;52.486;13.386;2023-03-01T00:25:52;36.25;;;13.50;;
31498;SDS011;18115;52.486;13.386;2023-03-01T00:28:18;34.72;;;12.27;;
31498;SDS011;18115;52.486;13.386;2023-03-01T00:30:45;24.77;;;13.05;;
31498;SDS011;18115;52.486;13.386;2023-03-01T00:33:10;26.52;;;11.73;;
31498;SDS011;18115;52.486;13.386;2023-03-01T00:35:36;29.38;;;12.23;;
31498;SDS011;18115;52.486;13.386;2023-03-01T00:38:02;29.27;;;13.10;;
31498;SDS011;18115;52.486;13.386;2023-03-01T00:40:29;34.65;;;13.07;;
31498;SDS011;18115;52.486;13.386;2023-03-01T00:42:57;28.20;;;13.43;;
31498;SDS011;18115;52.486;13.386;2023-03-01T00:45:23;28.40;;;12.80;;
31498;SDS011;18115;52.486;13.386;2023-03-01T00:47:49;32.65;;;12.90;;
31498;SDS011;18115;52.486;13.386;2023-03-01T00:50:16;38.15;;;14.07;;
31498;SDS011;18115;52.486;13.386;2023-03-01T00:52:42;38.72;;;12.90;;
31498;SDS011;18115;52.486;13.386;2023-03-01T00:55:09;35.42;;;13.98;;
31498;SDS011;18115;52.486;13.386;2023-03-01T00:57:35;33.13;;;13.48;;
31498;SDS011;18115;52.486;13.386;2023-03-01T01:00:01;32.33;;;13.30;;
31498;SDS011;18115;52.486;13.386;2023-03-01T01:02:29;27.27;;;12.90;;
31498;SDS011;18115;52.486;13.386;2023-03-01T01:04:54;23.17;;;11.90;;
31498;SDS011;18115;52.486;13.386;2023-03-01T01:07:20;33.63;;;14.32;;
31498;SDS011;18115;52.486;13.386;2023-03-01T01:09:46;29.48;;;13.35;;
31498;SDS011;18115;52.486;13.386;2023-03-01T01:12:11;41.55;;;14.10;;
31498;SDS011;18115;52.486;13.386;2023-03-01T01:14:37;36.25;;;14.13;;
31498;SDS011;18115;52.486;13.386;2023-03-01T01:17:03;43.88;;;14.30;;
31498;SDS011;18115;52.486;13.386;2023-03-01T01:19:29;34.53;;;13.57;;
31498;SDS011;18115;52.486;13.386;2023-03-01T01:21:55;31.63;;;14.05;;
31498;SDS011;18115;52.486;13.386;2023-03-01T01:24:21;30.77;;;13.57;;
31498;SDS011;18115;52.486;13.386;2023-03-01T01:26:47;44.30;;;15.35;;
31498;SDS011;18115;52.486;13.386;2023-03-01T01:29:12;30.25;;;14.05;;
31498;SDS011;18115;52.486;13.386;2023-03-01T01:31:39;38.10;;;15.13;;
31498;SDS011;18115;52.486;13.386;2023-03-01T01:34:06;37.50;;;14.13;;
31498;SDS011;18115;52.486;13.386;2023-03-01T01:36:34;40.63;;;14.90;;
31498;SDS011;18115;52.486;13.386;2023-03-01T01:39:00;37.13;;;15.90;;
31498;SDS011;18115;52.486;13.386;2023-03-01T01:41:26;43.20;;;16.23;;
31498;SDS011;18115;52.486;13.386;2023-03-01T01:46:38;42.65;;;16.52;;
31498;SDS011;18115;52.486;13.386;2023-03-01T01:49:32;44.20;;;15.15;;
31498;SDS011;18115;52.486;13.386;2023-03-01T01:55:02;43.53;;;16.00;;
31498;SDS011;18115;52.486;13.386;2023-03-01T01:57:49;36.38;;;15.75;;
31498;SDS011;18115;52.486;13.386;2023-03-01T02:00:25;31.52;;;15.77;;
31498;SDS011;18115;52.486;13.386;2023-03-01T02:02:54;45.20;;;16.10;;
31498;SDS011;18115;52.486;13.386;2023-03-01T02:05:31;38.75;;;15.40;;
31498;SDS011;18115;52.486;13.386;2023-03-01T02:08:12;36.67;;;15.15;;
31498;SDS011;18115;52.486;13.386;2023-03-01T02:10:39;39.50;;;16.08;;
31498;SDS011;18115;52.486;13.386;2023-03-01T02:13:05;37.80;;;14.52;;
31498;SDS011;18115;52.486;13.386;2023-03-01T02:15:35;41.33;;;15.65;;
31498;SDS011;18115;52.486;13.386;2023-03-01T02:18:03;30.65;;;14.95;;
31498;SDS011;18115;52.486;13.386;2023-03-01T02:22:55;37.58;;;15.63;;
31498;SDS011;18115;52.486;13.386;2023-03-01T02:25:23;39.90;;;16.75;;
31498;SDS011;18115;52.486;13.386;2023-03-01T02:30:24;44.25;;;15.32;;
31498;SDS011;18115;52.486;13.386;2023-03-01T02:32:51;42.22;;;16.35;;
31498;SDS011;18115;52.486;13.386;2023-03-01T02:35:17;39.28;;;16.60;;
31498;SDS011;18115;52.486;13.386;2023-03-01T02:37:44;34.47;;;15.57;;
31498;SDS011;18115;52.486;13.386;2023-03-01T02:40:12;37.28;;;15.75;;
31498;SDS011;18115;52.486;13.386;2023-03-01T02:42:55;41.90;;;15.10;;
31498;SDS011;18115;52.486;13.386;2023-03-01T02:45:22;35.05;;;16.00;;
31498;SDS011;18115;52.486;13.386;2023-03-01T02:47:48;43.97;;;17.55;;
31498;SDS011;18115;52.486;13.386;2023-03-01T02:55:31;44.38;;;17.48;;
31498;SDS011;18115;52.486;13.386;2023-03-01T02:57:57;33.97;;;14.98;;
31498;SDS011;18115;52.486;13.386;2023-03-01T03:00:28;37.75;;;17.38;;
31498;SDS011;18115;52.486;13.386;2023-03-01T03:03:00;46.42;;;18.02;;
31498;SDS011;18115;52.486;13.386;2023-03-01T03:05:28;45.22;;;17.58;;
31498;SDS011;18115;52.486;13.386;2023-03-01T03:07:55;38.28;;;17.33;;
31498;SDS011;18115;52.486;13.386;2023-03-01T03:10:26;43.53;;;17.17;;
31498;SDS011;18115;52.486;13.386;2023-03-01T03:12:57;44.58;;;16.65;;
31498;SDS011;18115;52.486;13.386;2023-03-01T03:15:25;43.35;;;18.08;;
31498;SDS011;18115;52.486;13.386;2023-03-01T03:17:52;41.03;;;16.30;;
31498;SDS011;18115;52.486;13.386;2023-03-01T03:20:20;36.45;;;15.30;;
31498;SDS011;18115;52.486;13.386;2023-03-01T03:22:48;41.20;;;16.92;;
31498;SDS011;18115;52.486;13.386;2023-03-01T03:25:16;43.85;;;17.08;;
31498;SDS011;18115;52.486;13.386;2023-03-01T03:27:43;41.60;;;16.17;;
31498;SDS011;18115;52.486;13.386;2023-03-01T03:30:11;51.53;;;16.45;;
31498;SDS011;18115;52.486;13.386;2023-03-01T03:32:39;42.00;;;16.85;;
31498;SDS011;18115;52.486;13.386;2023-03-01T03:35:06;48.55;;;16.95;;
31498;SDS011;18115;52.486;13.386;2023-03-01T03:37:37;43.30;;;16.98;;
31498;SDS011;18115;52.486;13.386;2023-03-01T03:40:21;46.67;;;16.13;;
31498;SDS011;18115;52.486;13.386;2023-03-01T03:42:47;32.63;;;16.20;;
31498;SDS011;18115;52.486;13.386;2023-03-01T03:45:14;36.97;;;16.33;;
31498;SDS011;18115;52.486;13.386;2023-03-01T03:47:43;42.13;;;17.27;;
31498;SDS011;18115;52.486;13.386;2023-03-01T03:50:10;47.53;;;17.52;;
31498;SDS011;18115;52.486;13.386;2023-03-01T03:52:37;41.65;;;16.70;;
31498;SDS011;18115;52.486;13.386;2023-03-01T03:55:04;37.80;;;17.55;;
31498;SDS011;18115;52.486;13.386;2023-03-01T03:57:36;48.55;;;16.98;;
31498;SDS011;18115;52.486;13.386;2023-03-01T04:00:02;42.25;;;15.90;;
31498;SDS011;18115;52.486;13.386;2023-03-01T04:02:38;47.10;;;16.70;;
31498;SDS011;18115;52.486;13.386;2023-03-01T04:05:05;40.13;;;16.60;;
31498;SDS011;18115;52.486;13.386;2023-03-01T04:07:31;45.47;;;17.10;;
31498;SDS011;18115;52.486;13.386;2023-03-01T04:09:57;37.45;;;17.00;;
31498;SDS011;18115;52.486;13.386;2023-03-01T04:12:23;39.47;;;17.17;;
31498;SDS011;18115;52.486;13.386;2023-03-01T04:14:49;41.85;;;16.35;;
31498;SDS011;18115;52.486;13.386;2023-03-01T04:17:15;39.83;;;16.15;;
31498;SDS011;18115;52.486;13.386;2023-03-01T04:19:41;44.47;;;16.17;;
31498;SDS011;18115;52.486;13.386;2023-03-01T04:22:09;47.85;;;17.92;;
31498;SDS011;18115;52.486;13.386;2023-03-01T04:24:36;47.60;;;18.38;;
31498;SDS011;18115;52.486;13.386;2023-03-01T04:27:01;52.00;;;16.60;;
31498;SDS011;18115;52.486;13.386;2023-03-01T04:29:27;47.35;;;16.55;;
31498;SDS011;18115;52.486;13.386;2023-03-01T04:31:54;46.15;;;17.45;;
31498;SDS011;18115;52.486;13.386;2023-03-01T04:34:20;41.88;;;16.85;;
31498;SDS011;18115;52.486;13.386;2023-03-01T04:36:46;42.90;;;17.38;;
31498;SDS011;18115;52.486;13.386;2023-03-01T04:39:11;39.67;;;17.60;;
31498;SDS011;18115;52.486;13.386;2023-03-01T04:41:37;36.20;;;16.55;;
31498;SDS011;18115;52.486;13.386;2023-03-01T04:44:04;40.92;;;18.42;;
31498;SDS011;18115;52.486;13.386;2023-03-01T04:46:30;51.65;;;19.30;;
31498;SDS011;18115;52.486;13.386;2023-03-01T04:48:56;42.78;;;19.58;;
31498;SDS011;18115;52.486;13.386;2023-03-01T04:51:22;46.92;;;18.65;;
31498;SDS011;18115;52.486;13.386;2023-03-01T04:53:47;46.58;;;19.15;;
31498;SDS011;18115;52.486;13.386;2023-03-01T04:56:13;47.78;;;19.85;;
31498;SDS011;18115;52.486;13.386;2023-03-01T04:58:39;46.45;;;18.63;;
31498;SDS011;18115;52.486;13.386;2023-03-01T05:01:09;47.40;;;18.65;;
31498;SDS011;18115;52.486;13.386;2023-03-01T05:03:51;43.85;;;18.70;;
31498;SDS011;18115;52.486;13.386;2023-03-01T05:06:17;50.45;;;19.63;;
31498;SDS011;18115;52.486;13.386;2023-03-01T05:08:44;40.53;;;18.92;;
31498;SDS011;18115;52.486;13.386;2023-03-01T05:11:10;46.67;;;19.52;;
31498;SDS011;18115;52.486;13.386;2023-03-01T05:13:37;47.42;;;19.70;;
31498;SDS011;18115;52.486;13.386;2023-03-01T05:16:04;51.55;;;20.20;;
31498;SDS011;18115;52.486;13.386;2023-03-01T05:18:32;48.92;;;19.75;;
31498;SDS011;18115;52.486;13.386;2023-03-01T05:21:02;56.30;;;20.77;;
31498;SDS011;18115;52.486;13.386;2023-03-01T05:23:33;63.10;;;22.45;;
31498;SDS011;18115;52.486;13.386;2023-03-01T05:25:59;54.05;;;21.23;;
31498;SDS011;18115;52.486;13.386;2023-03-01T05:28:27;57.53;;;22.02;;
31498;SDS011;18115;52.486;13.386;2023-03-01T05:30:54;60.55;;;22.58;;
31498;SDS011;18115;52.486;13.386;2023-03-01T05:33:20;62.42;;;20.60;;
31498;SDS011;18115;52.486;13.386;2023-03-01T05:35:46;62.80;;;22.10;;
31498;SDS011;18115;52.486;13.386;2023-03-01T05:38:13;45.83;;;20.00;;
31498;SDS011;18115;52.486;13.386;2023-03-01T05:40:43;51.85;;;19.95;;
31498;SDS011;18115;52.486;13.386;2023-03-01T05:43:10;52.20;;;20.33;;
31498;SDS011;18115;52.486;13.386;2023-03-01T05:45:37;50.00;;;20.38;;
31498;SDS011;18115;52.486;13.386;2023-03-01T05:48:04;58.08;;;21.70;;
31498;SDS011;18115;52.486;13.386;2023-03-01T05:50:35;43.97;;;19.33;;
31498;SDS011;18115;52.486;13.386;2023-03-01T05:53:12;49.95;;;19.63;;
31498;SDS011;18115;52.486;13.386;2023-03-01T05:55:43;60.17;;;20.45;;
31498;SDS011;18115;52.486;13.386;2023-03-01T05:58:13;54.70;;;20.27;;
31498;SDS011;18115;52.486;13.386;2023-03-01T06:00:40;56.42;;;21.60;;
31498;SDS011;18115;52.486;13.386;2023-03-01T06:03:09;56.60;;;22.60;;
31498;SDS011;18115;52.486;13.386;2023-03-01T06:05:36;62.58;;;23.13;;
31498;SDS011;18115;52.486;13.386;2023-03-01T06:08:02;49.45;;;21.40;;
31498;SDS011;18115;52.486;13.386;2023-03-01T06:10:28;52.92;;;21.55;;
31498;SDS011;18115;52.486;13.386;2023-03-01T06:12:54;57.58;;;22.20;;
31498;SDS011;18115;52.486;13.386;2023-03-01T06:15:21;59.67;;;22.85;;
31498;SDS011;18115;52.486;13.386;2023-03-01T06:17:47;59.15;;;24.08;;
31498;SDS011;18115;52.486;13.386;2023-03-01T06:20:15;55.53;;;21.15;;
31498;SDS011;18115;52.486;13.386;2023-03-01T06:22:42;63.35;;;23.13;;
31498;SDS011;18115;52.486;13.386;2023-03-01T06:25:09;57.47;;;21.88;;
31498;SDS011;18115;52.486;13.386;2023-03-01T06:27:35;53.75;;;21.50;;
31498;SDS011;18115;52.486;13.386;2023-03-01T06:30:01;66.35;;;23.48;;
31498;SDS011;18115;52.486;13.386;2023-03-01T06:32:27;58.35;;;22.60;;
31498;SDS011;18115;52.486;13.386;2023-03-01T06:34:53;74.22;;;22.25;;
31498;SDS011;18115;52.486;13.386;2023-03-01T06:37:19;46.72;;;20.85;;
31498;SDS011;18115;52.486;13.386;2023-03-01T06:39:46;48.45;;;20.27;;
31498;SDS011;18115;52.486;13.386;2023-03-01T06:42:12;47.03;;;20.63;;
31498;SDS011;18115;52.486;13.386;2023-03-01T06:44:38;57.65;;;21.58;;
31498;SDS011;18115;52.486;13.386;2023-03-01T06:47:04;60.90;;;21.73;;
31498;SDS011;18115;52.486;13.386;2023-03-01T06:49:30;59.85;;;22.48;;
31498;SDS011;18115;52.486;13.386;2023-03-01T06:51:56;43.47;;;20.08;;
31498;SDS011;18115;52.486;13.386;2023-03-01T06:54:22;53.72;;;23.40;;
31498;SDS011;18115;52.486;13.386;2023-03-01T06:56:49;56.50;;;22.25;;
31498;SDS011;18115;52.486;13.386;2023-03-01T06:59:15;62.10;;;22.92;;
31498;SDS011;18115;52.486;13.386;2023-03-01T07:01:41;54.22;;;20.13;;
31498;SDS011;18115;52.486;13.386;2023-03-01T07:04:07;50.45;;;21.40;;
31498;SDS011;18115;52.486;13.386;2023-03-01T07:06:33;52.13;;;20.85;;
31498;SDS011;18115;52.486;13.386;2023-03-01T07:08:59;48.58;;;20.48;;
31498;SDS011;18115;52.486;13.386;2023-03-01T07:11:25;56.05;;;22.98;;
31498;SDS011;18115;52.486;13.386;2023-03-01T07:13:51;53.13;;;22.70;;
31498;SDS011;18115;52.486;13.386;2023-03-01T07:16:16;53.33;;;22.30;;
31498;SDS011;18115;52.486;13.386;2023-03-01T07:18:42;67.97;;;22.20;;
31498;SDS011;18115;52.486;13.386;2023-03-01T07:21:09;58.40;;;21.77;;
31498;SDS011;18115;52.486;13.386;2023-03-01T07:23:37;57.63;;;23.98;;
31498;SDS011;18115;52.486;13.386;2023-03-01T07:26:04;57.88;;;23.20;;
31498;SDS011;18115;52.486;13.386;2023-03-01T21:29:13;34.53;;;12.95;;
31498;SDS011;18115;52.486;13.386;2023-03-01T21:31:38;30.98;;;11.52;;
31498;SDS011;18115;52.486;13.386;2023-03-01T21:34:05;35.63;;;13.75;;
31498;SDS011;18115;52.486;13.386;2023-03-01T21:36:31;39.83;;;12.77;;
31498;SDS011;18115;52.486;13.386;2023-03-01T21:38:57;39.38;;;13.48;;
31498;SDS011;18115;52.486;13.386;2023-03-01T21:41:26;43.38;;;15.00;;
31498;SDS011;18115;52.486;13.386;2023-03-01T21:43:54;38.97;;;13.65;;
31498;SDS011;18115;52.486;13.386;2023-03-01T21:46:22;43.00;;;13.93;;
31498;SDS011;18115;52.486;13.386;2023-03-01T21:48:50;37.78;;;12.98;;
31498;SDS011;18115;52.486;13.386;2023-03-01T21:51:17;44.97;;;13.70;;
31498;SDS011;18115;52.486;13.386;2023-03-01T21:53:44;41.17;;;13.35;;
31498;SDS011;18115;52.486;13.386;2023-03-01T21:56:18;45.63;;;13.18;;
31498;SDS011;18115;52.486;13.386;2023-03-01T22:01:12;33.50;;;13.38;;
31498;SDS011;18115;52.486;13.386;2023-03-01T22:03:39;49.30;;;15.13;;
31498;SDS011;18115;52.486;13.386;2023-03-01T22:06:12;56.25;;;18.55;;
31498;SDS011;18115;52.486;13.386;2023-03-01T22:08:50;47.13;;;17.88;;
31498;SDS011;18115;52.486;13.386;2023-03-01T22:11:19;52.28;;;19.60;;
31498;SDS011;18115;52.486;13.386;2023-03-01T22:13:46;54.53;;;18.20;;
31498;SDS011;18115;52.486;13.386;2023-03-01T22:16:13;58.33;;;19.52;;
31498;SDS011;18115;52.486;13.386;2023-03-01T22:18:40;69.88;;;20.95;;
31498;SDS011;18115;52.486;13.386;2023-03-01T22:21:06;59.17;;;19.52;;
31498;SDS011;18115;52.486;13.386;2023-03-01T22:23:32;64.78;;;21.02;;
31498;SDS011;18115;52.486;13.386;2023-03-01T22:26:00;62.63;;;19.88;;
31498;SDS011;18115;52.486;13.386;2023-03-01T22:28:27;64.63;;;19.10;;
31498;SDS011;18115;52.486;13.386;2023-03-01T22:30:53;67.18;;;19.70;;
31498;SDS011;18115;52.486;13.386;2023-03-01T22:33:19;51.28;;;18.13;;
31498;SDS011;18115;52.486;13.386;2023-03-01T22:35:44;61.65;;;18.20;;
31498;SDS011;18115;52.486;13.386;2023-03-01T22:38:10;60.60;;;17.58;;
31498;SDS011;18115;52.486;13.386;2023-03-01T22:40:36;61.90;;;17.65;;
31498;SDS011;18115;52.486;13.386;2023-03-01T22:43:02;44.00;;;15.65;;
31498;SDS011;18115;52.486;13.386;2023-03-01T22:45:28;56.53;;;18.10;;
31498;SDS011;18115;52.486;13.386;2023-03-01T22:47:56;60.65;;;17.63;;
31498;SDS011;18115;52.486;13.386;2023-03-01T22:50:24;58.22;;;17.70;;
31498;SDS011;18115;52.486;13.386;2023-03-01T22:52:50;49.30;;;17.23;;
31498;SDS011;18115;52.486;13.386;2023-03-01T22:55:16;52.30;;;17.17;;
31498;SDS011;18115;52.486;13.386;2023-03-01T22:57:42;68.18;;;18.27;;
31498;SDS011;18115;52.486;13.386;2023-03-01T23:00:08;57.72;;;18.23;;
31498;SDS011;18115;52.486;13.386;2023-03-01T23:02:37;57.85;;;19.60;;
31498;SDS011;18115;52.486;13.386;2023-03-01T23:05:05;63.15;;;19.13;;
31498;SDS011;18115;52.486;13.386;2023-03-01T23:07:32;55.47;;;18.48;;
31498;SDS011;18115;52.486;13.386;2023-03-01T23:09:58;54.30;;;19.13;;
31498;SDS011;18115;52.486;13.386;2023-03-01T23:12:26;80.75;;;21.27;;
31498;SDS011;18115;52.486;13.386;2023-03-01T23:14:52;68.60;;;20.50;;
31498;SDS011;18115;52.486;13.386;2023-03-01T23:17:18;61.05;;;20.73;;
31498;SDS011;18115;52.486;13.386;2023-03-01T23:19:44;59.95;;;19.77;;
31498;SDS011;18115;52.486;13.386;2023-03-01T23:22:09;82.60;;;22.20;;
31498;SDS011;18115;52.486;13.386;2023-03-01T23:24:35;79.75;;;24.08;;
31498;SDS011;18115;52.486;13.386;2023-03-01T23:27:01;71.05;;;21.33;;
31498;SDS011;18115;52.486;13.386;2023-03-01T23:29:27;76.28;;;21.95;;
31498;SDS011;18115;52.486;13.386;2023-03-01T23:31:54;69.15;;;23.98;;
31498;SDS011;18115;52.486;13.386;2023-03-01T23:34:21;74.63;;;23.08;;
31498;SDS011;18115;52.486;13.386;2023-03-01T23:36:47;80.72;;;24.70;;
31498;SDS011;18115;52.486;13.386;2023-03-01T23:39:16;79.55;;;23.67;;
31498;SDS011;18115;52.486;13.386;2023-03-01T23:41:42;97.45;;;25.50;;
31498;SDS011;18115;52.486;13.386;2023-03-01T23:44:10;77.22;;;24.48;;
31498;SDS011;18115;52.486;13.386;2023-03-01T23:46:41;88.43;;;25.65;;
31498;SDS011;18115;52.486;13.386;2023-03-01T23:49:08;73.32;;;23.52;;
31498;SDS011;18115;52.486;13.386;2023-03-01T23:51:38;71.93;;;24.67;;
31498;SDS011;18115;52.486;13.386;2023-03-01T23:54:05;82.32;;;25.50;;
31498;SDS011;18115;52.486;13.386;2023-03-01T23:56:33;82.70;;;25.17;;
31498;SDS011;18115;52.486;13.386;2023-03-01T23:59:01;74.03;;;22.88;;
